sensor_id;sensor_type;location;lat;lon;timestamp;temperature;humidity
23237;DHT22;11787;52.018;8.570;2024-03-06T00:00:32;6.60;99.90
23237;DHT22;11787;52.018;8.570;2024-03-06T00:02:58;6.60;99.90
23237;DHT22;11787;52.018;8.570;2024-03-06T00:05:24;6.60;99.90
23237;DHT22;11787;52.018;8.570;2024-03-06T00:07:49;6.60;99.90
23237;DHT22;11787;52.018;8.570;2024-03-06T00:10:15;6.60;99.90
23237;DHT22;11787;52.018;8.570;2024-03-06T00:12:40;6.60;99.90
23237;DHT22;11787;52.018;8.570;2024-03-06T00:15:06;6.60;99.90
23237;DHT22;11787;52.018;8.570;2024-03-06T00:17:31;6.60;99.90
23237;DHT22;11787;52.018;8.570;2024-03-06T00:19:57;6.70;99.90
23237;DHT22;11787;52.018;8.570;2024-03-06T00:22:22;6.70;99.90
23237;DHT22;11787;52.018;8.570;2024-03-06T00:24:48;6.60;99.90
23237;DHT22;11787;52.018;8.570;2024-03-06T00:27:14;6.60;99.90
23237;DHT22;11787;52.018;8.570;2024-03-06T00:29:39;6.60;99.90
23237;DHT22;11787;52.018;8.570;2024-03-06T00:32:05;6.60;99.90
23237;DHT22;11787;52.018;8.570;2024-03-06T00:34:30;6.70;99.90
23237;DHT22;11787;52.018;8.570;2024-03-06T00:36:56;6.70;99.90
23237;DHT22;11787;52.018;8.570;2024-03-06T00:39:22;6.70;99.90
23237;DHT22;11787;52.018;8.570;2024-03-06T00:41:47;6.70;99.90
23237;DHT22;11787;52.018;8.570;2024-03-06T00:44:13;6.70;99.90
23237;DHT22;11787;52.018;8.570;2024-03-06T00:46:38;6.70;99.90
23237;DHT22;11787;52.018;8.570;2024-03-06T00:49:04;6.70;99.90
23237;DHT22;11787;52.018;8.570;2024-03-06T00:51:30;6.70;99.90
23237;DHT22;11787;52.018;8.570;2024-03-06T00:53:56;6.70;99.90
23237;DHT22;11787;52.018;8.570;2024-03-06T00:56:22;6.60;99.90
23237;DHT22;11787;52.018;8.570;2024-03-06T00:58:47;6.60;99.90
23237;DHT22;11787;52.018;8.570;2024-03-06T01:01:13;6.60;99.90
23237;DHT22;11787;52.018;8.570;2024-03-06T01:03:40;6.60;99.90
23237;DHT22;11787;52.018;8.570;2024-03-06T01:06:05;6.50;99.90
23237;DHT22;11787;52.018;8.570;2024-03-06T01:08:31;6.50;99.90
23237;DHT22;11787;52.018;8.570;2024-03-06T01:10:57;6.50;99.90
23237;DHT22;11787;52.018;8.570;2024-03-06T01:13:22;6.50;99.90
23237;DHT22;11787;52.018;8.570;2024-03-06T01:15:48;6.50;99.90
23237;DHT22;11787;52.018;8.570;2024-03-06T01:18:13;6.50;99.90
23237;DHT22;11787;52.018;8.570;2024-03-06T01:20:39;6.50;99.90
23237;DHT22;11787;52.018;8.570;2024-03-06T01:23:05;6.50;99.90
23237;DHT22;11787;52.018;8.570;2024-03-06T01:25:31;6.60;99.90
23237;DHT22;11787;52.018;8.570;2024-03-06T01:27:56;6.60;99.90
23237;DHT22;11787;52.018;8.570;2024-03-06T01:30:21;6.60;99.90
23237;DHT22;11787;52.018;8.570;2024-03-06T01:32:47;6.60;99.90
23237;DHT22;11787;52.018;8.570;2024-03-06T01:35:12;6.70;99.90
23237;DHT22;11787;52.018;8.570;2024-03-06T01:37:38;6.60;99.90
23237;DHT22;11787;52.018;8.570;2024-03-06T01:40:04;6.60;99.90
23237;DHT22;11787;52.018;8.570;2024-03-06T01:42:30;6.70;99.90
23237;DHT22;11787;52.018;8.570;2024-03-06T01:44:55;6.70;99.90
23237;DHT22;11787;52.018;8.570;2024-03-06T01:47:21;6.70;99.90
23237;DHT22;11787;52.018;8.570;2024-03-06T01:49:46;6.70;99.90
23237;DHT22;11787;52.018;8.570;2024-03-06T01:52:12;6.70;99.90
23237;DHT22;11787;52.018;8.570;2024-03-06T01:54:39;6.70;99.90
23237;DHT22;11787;52.018;8.570;2024-03-06T01:57:05;6.70;99.90
23237;DHT22;11787;52.018;8.570;2024-03-06T01:59:31;6.70;99.90
23237;DHT22;11787;52.018;8.570;2024-03-06T02:01:57;6.70;99.90
23237;DHT22;11787;52.018;8.570;2024-03-06T02:04:23;6.70;99.90
23237;DHT22;11787;52.018;8.570;2024-03-06T02:06:49;6.60;99.90
23237;DHT22;11787;52.018;8.570;2024-03-06T02:09:15;6.70;99.90
23237;DHT22;11787;52.018;8.570;2024-03-06T02:11:40;6.70;99.90
23237;DHT22;11787;52.018;8.570;2024-03-06T02:14:07;6.70;99.90
23237;DHT22;11787;52.018;8.570;2024-03-06T02:16:35;6.70;99.90
23237;DHT22;11787;52.018;8.570;2024-03-06T02:19:01;6.70;99.90
23237;DHT22;11787;52.018;8.570;2024-03-06T02:21:26;6.70;99.90
23237;DHT22;11787;52.018;8.570;2024-03-06T02:23:52;6.70;99.90
23237;DHT22;11787;52.018;8.570;2024-03-06T02:26:18;6.70;99.90
23237;DHT22;11787;52.018;8.570;2024-03-06T02:28:50;6.80;99.90
23237;DHT22;11787;52.018;8.570;2024-03-06T02:31:16;6.80;99.90
23237;DHT22;11787;52.018;8.570;2024-03-06T02:33:43;6.70;99.90
23237;DHT22;11787;52.018;8.570;2024-03-06T02:36:10;6.80;99.90
23237;DHT22;11787;52.018;8.570;2024-03-06T02:38:35;6.70;99.90
23237;DHT22;11787;52.018;8.570;2024-03-06T02:41:01;6.80;99.90
23237;DHT22;11787;52.018;8.570;2024-03-06T02:43:27;6.80;99.90
23237;DHT22;11787;52.018;8.570;2024-03-06T02:45:52;6.80;99.90
23237;DHT22;11787;52.018;8.570;2024-03-06T02:48:18;6.80;99.90
23237;DHT22;11787;52.018;8.570;2024-03-06T02:50:43;6.80;99.90
23237;DHT22;11787;52.018;8.570;2024-03-06T02:53:09;6.80;99.90
23237;DHT22;11787;52.018;8.570;2024-03-06T02:55:34;6.80;99.90
23237;DHT22;11787;52.018;8.570;2024-03-06T02:58:03;6.70;99.90
23237;DHT22;11787;52.018;8.570;2024-03-06T03:00:29;6.80;99.90
23237;DHT22;11787;52.018;8.570;2024-03-06T03:02:54;6.80;99.90
23237;DHT22;11787;52.018;8.570;2024-03-06T03:05:20;6.80;99.90
23237;DHT22;11787;52.018;8.570;2024-03-06T03:07:45;6.80;99.90
23237;DHT22;11787;52.018;8.570;2024-03-06T03:10:10;6.80;99.90
23237;DHT22;11787;52.018;8.570;2024-03-06T03:12:38;6.80;99.90
23237;DHT22;11787;52.018;8.570;2024-03-06T03:15:03;6.90;99.90
23237;DHT22;11787;52.018;8.570;2024-03-06T03:17:29;6.90;99.90
23237;DHT22;11787;52.018;8.570;2024-03-06T03:19:54;7.00;99.90
23237;DHT22;11787;52.018;8.570;2024-03-06T03:22:20;6.90;99.90
23237;DHT22;11787;52.018;8.570;2024-03-06T03:24:45;6.90;99.90
23237;DHT22;11787;52.018;8.570;2024-03-06T03:27:12;7.00;99.90
23237;DHT22;11787;52.018;8.570;2024-03-06T03:29:38;6.90;99.90
23237;DHT22;11787;52.018;8.570;2024-03-06T03:32:03;7.00;99.90
23237;DHT22;11787;52.018;8.570;2024-03-06T03:34:29;7.00;99.90
23237;DHT22;11787;52.018;8.570;2024-03-06T03:36:55;7.00;99.90
23237;DHT22;11787;52.018;8.570;2024-03-06T03:39:22;7.00;99.90
23237;DHT22;11787;52.018;8.570;2024-03-06T03:41:49;7.00;99.90
23237;DHT22;11787;52.018;8.570;2024-03-06T03:44:16;7.00;99.90
23237;DHT22;11787;52.018;8.570;2024-03-06T03:46:41;6.90;99.90
23237;DHT22;11787;52.018;8.570;2024-03-06T03:49:07;6.90;99.90
23237;DHT22;11787;52.018;8.570;2024-03-06T03:51:34;6.90;99.90
23237;DHT22;11787;52.018;8.570;2024-03-06T03:54:00;7.00;99.90
23237;DHT22;11787;52.018;8.570;2024-03-06T03:56:25;7.00;99.90
23237;DHT22;11787;52.018;8.570;2024-03-06T03:58:51;7.00;99.90
23237;DHT22;11787;52.018;8.570;2024-03-06T04:01:16;7.00;99.90
23237;DHT22;11787;52.018;8.570;2024-03-06T04:03:42;7.00;99.90
23237;DHT22;11787;52.018;8.570;2024-03-06T04:06:10;7.10;99.90
23237;DHT22;11787;52.018;8.570;2024-03-06T04:08:35;7.00;99.90
23237;DHT22;11787;52.018;8.570;2024-03-06T04:11:01;7.10;99.90
23237;DHT22;11787;52.018;8.570;2024-03-06T04:13:26;7.10;99.90
23237;DHT22;11787;52.018;8.570;2024-03-06T04:15:52;7.10;99.90
23237;DHT22;11787;52.018;8.570;2024-03-06T04:18:18;7.10;99.90
23237;DHT22;11787;52.018;8.570;2024-03-06T04:20:43;7.10;99.90
23237;DHT22;11787;52.018;8.570;2024-03-06T04:23:09;7.00;99.90
23237;DHT22;11787;52.018;8.570;2024-03-06T04:25:34;7.00;99.90
23237;DHT22;11787;52.018;8.570;2024-03-06T04:27:59;7.00;99.90
23237;DHT22;11787;52.018;8.570;2024-03-06T04:30:25;7.00;99.90
23237;DHT22;11787;52.018;8.570;2024-03-06T04:32:50;7.00;99.90
23237;DHT22;11787;52.018;8.570;2024-03-06T04:35:16;7.00;99.90
23237;DHT22;11787;52.018;8.570;2024-03-06T04:37:41;7.10;99.90
23237;DHT22;11787;52.018;8.570;2024-03-06T04:40:09;7.00;99.90
23237;DHT22;11787;52.018;8.570;2024-03-06T04:42:35;7.10;99.90
23237;DHT22;11787;52.018;8.570;2024-03-06T04:45:11;7.10;99.90
23237;DHT22;11787;52.018;8.570;2024-03-06T04:47:37;7.10;99.90
23237;DHT22;11787;52.018;8.570;2024-03-06T04:50:03;7.00;99.90
23237;DHT22;11787;52.018;8.570;2024-03-06T04:52:28;7.00;99.90
23237;DHT22;11787;52.018;8.570;2024-03-06T04:54:54;7.00;99.90
23237;DHT22;11787;52.018;8.570;2024-03-06T04:57:19;7.10;99.90
23237;DHT22;11787;52.018;8.570;2024-03-06T04:59:45;7.10;99.90
23237;DHT22;11787;52.018;8.570;2024-03-06T05:02:10;7.10;99.90
23237;DHT22;11787;52.018;8.570;2024-03-06T05:04:36;7.10;99.90
23237;DHT22;11787;52.018;8.570;2024-03-06T05:07:01;7.10;99.90
23237;DHT22;11787;52.018;8.570;2024-03-06T05:09:27;7.10;99.90
23237;DHT22;11787;52.018;8.570;2024-03-06T05:11:52;7.20;99.90
23237;DHT22;11787;52.018;8.570;2024-03-06T05:14:18;7.20;99.90
23237;DHT22;11787;52.018;8.570;2024-03-06T05:16:43;7.20;99.90
23237;DHT22;11787;52.018;8.570;2024-03-06T05:19:09;7.20;99.90
23237;DHT22;11787;52.018;8.570;2024-03-06T05:21:36;7.20;99.90
23237;DHT22;11787;52.018;8.570;2024-03-06T05:24:02;7.10;99.90
23237;DHT22;11787;52.018;8.570;2024-03-06T05:26:27;7.10;99.90
23237;DHT22;11787;52.018;8.570;2024-03-06T05:28:53;7.10;99.90
23237;DHT22;11787;52.018;8.570;2024-03-06T05:31:19;7.10;99.90
23237;DHT22;11787;52.018;8.570;2024-03-06T05:33:48;7.10;99.90
23237;DHT22;11787;52.018;8.570;2024-03-06T05:36:15;7.10;99.90
23237;DHT22;11787;52.018;8.570;2024-03-06T05:38:41;7.00;99.90
23237;DHT22;11787;52.018;8.570;2024-03-06T05:41:07;7.00;99.90
23237;DHT22;11787;52.018;8.570;2024-03-06T05:43:33;7.00;99.90
23237;DHT22;11787;52.018;8.570;2024-03-06T05:45:59;7.00;99.90
23237;DHT22;11787;52.018;8.570;2024-03-06T05:48:25;6.90;99.90
23237;DHT22;11787;52.018;8.570;2024-03-06T05:50:51;6.90;99.90
23237;DHT22;11787;52.018;8.570;2024-03-06T05:53:16;6.90;99.90
23237;DHT22;11787;52.018;8.570;2024-03-06T05:55:42;6.90;99.90
23237;DHT22;11787;52.018;8.570;2024-03-06T05:58:07;6.90;99.90
23237;DHT22;11787;52.018;8.570;2024-03-06T06:00:32;6.90;99.90
23237;DHT22;11787;52.018;8.570;2024-03-06T06:02:58;6.90;99.90
23237;DHT22;11787;52.018;8.570;2024-03-06T06:05:24;6.90;99.90
23237;DHT22;11787;52.018;8.570;2024-03-06T06:26:50;6.60;99.90
23237;DHT22;11787;52.018;8.570;2024-03-06T06:29:17;6.50;99.90
23237;DHT22;11787;52.018;8.570;2024-03-06T06:31:42;6.50;99.90
23237;DHT22;11787;52.018;8.570;2024-03-06T06:34:08;6.60;99.90
23237;DHT22;11787;52.018;8.570;2024-03-06T06:36:34;6.60;99.90
23237;DHT22;11787;52.018;8.570;2024-03-06T06:38:59;6.70;99.90
23237;DHT22;11787;52.018;8.570;2024-03-06T06:41:25;6.70;99.90
23237;DHT22;11787;52.018;8.570;2024-03-06T06:43:50;6.70;99.90
23237;DHT22;11787;52.018;8.570;2024-03-06T06:46:17;6.80;99.90
23237;DHT22;11787;52.018;8.570;2024-03-06T06:48:43;6.80;99.90
23237;DHT22;11787;52.018;8.570;2024-03-06T06:51:09;6.80;99.90
23237;DHT22;11787;52.018;8.570;2024-03-06T06:53:34;6.80;99.90
23237;DHT22;11787;52.018;8.570;2024-03-06T06:56:00;6.90;99.90
23237;DHT22;11787;52.018;8.570;2024-03-06T06:58:26;6.90;99.90
23237;DHT22;11787;52.018;8.570;2024-03-06T07:00:54;7.00;99.90
23237;DHT22;11787;52.018;8.570;2024-03-06T07:03:20;7.00;99.90
23237;DHT22;11787;52.018;8.570;2024-03-06T07:05:47;7.10;99.90
23237;DHT22;11787;52.018;8.570;2024-03-06T07:08:12;7.10;99.90
23237;DHT22;11787;52.018;8.570;2024-03-06T07:10:38;7.10;99.90
23237;DHT22;11787;52.018;8.570;2024-03-06T07:13:04;7.10;99.90
23237;DHT22;11787;52.018;8.570;2024-03-06T07:15:31;7.10;99.90
23237;DHT22;11787;52.018;8.570;2024-03-06T07:17:56;7.10;99.90
23237;DHT22;11787;52.018;8.570;2024-03-06T07:20:22;7.10;99.90
23237;DHT22;11787;52.018;8.570;2024-03-06T07:22:47;7.00;99.90
23237;DHT22;11787;52.018;8.570;2024-03-06T07:25:13;7.10;99.90
23237;DHT22;11787;52.018;8.570;2024-03-06T07:27:39;7.10;99.90
23237;DHT22;11787;52.018;8.570;2024-03-06T07:30:06;7.10;99.90
23237;DHT22;11787;52.018;8.570;2024-03-06T07:32:32;7.10;99.90
23237;DHT22;11787;52.018;8.570;2024-03-06T07:34:58;7.20;99.90
23237;DHT22;11787;52.018;8.570;2024-03-06T07:37:24;7.10;99.90
23237;DHT22;11787;52.018;8.570;2024-03-06T07:39:49;7.10;99.90
23237;DHT22;11787;52.018;8.570;2024-03-06T07:42:15;7.10;99.90
23237;DHT22;11787;52.018;8.570;2024-03-06T07:44:41;7.10;99.90
23237;DHT22;11787;52.018;8.570;2024-03-06T07:47:06;7.10;99.90
23237;DHT22;11787;52.018;8.570;2024-03-06T07:49:32;7.10;99.90
23237;DHT22;11787;52.018;8.570;2024-03-06T07:51:58;7.20;99.90
23237;DHT22;11787;52.018;8.570;2024-03-06T07:54:24;7.20;99.90
23237;DHT22;11787;52.018;8.570;2024-03-06T07:56:49;7.20;99.90
23237;DHT22;11787;52.018;8.570;2024-03-06T07:59:15;7.20;99.90
23237;DHT22;11787;52.018;8.570;2024-03-06T08:01:43;7.30;99.90
23237;DHT22;11787;52.018;8.570;2024-03-06T08:04:08;7.30;99.90
23237;DHT22;11787;52.018;8.570;2024-03-06T08:06:34;7.30;99.90
23237;DHT22;11787;52.018;8.570;2024-03-06T08:09:02;7.30;99.90
23237;DHT22;11787;52.018;8.570;2024-03-06T08:11:28;7.30;99.90
23237;DHT22;11787;52.018;8.570;2024-03-06T08:13:58;7.30;99.90
23237;DHT22;11787;52.018;8.570;2024-03-06T08:16:24;7.30;99.90
23237;DHT22;11787;52.018;8.570;2024-03-06T08:18:49;7.30;99.90
23237;DHT22;11787;52.018;8.570;2024-03-06T08:21:15;7.40;99.90
23237;DHT22;11787;52.018;8.570;2024-03-06T08:23:40;7.40;99.90
23237;DHT22;11787;52.018;8.570;2024-03-06T08:26:06;7.30;99.90
23237;DHT22;11787;52.018;8.570;2024-03-06T08:28:32;7.30;99.90
23237;DHT22;11787;52.018;8.570;2024-03-06T08:30:57;7.30;99.90
23237;DHT22;11787;52.018;8.570;2024-03-06T08:33:23;7.40;99.90
23237;DHT22;11787;52.018;8.570;2024-03-06T08:35:50;7.40;99.90
23237;DHT22;11787;52.018;8.570;2024-03-06T08:38:15;7.40;99.90
23237;DHT22;11787;52.018;8.570;2024-03-06T08:40:42;7.40;99.90
23237;DHT22;11787;52.018;8.570;2024-03-06T08:43:11;7.40;99.90
23237;DHT22;11787;52.018;8.570;2024-03-06T08:45:38;7.40;99.90
23237;DHT22;11787;52.018;8.570;2024-03-06T08:48:04;7.40;99.90
23237;DHT22;11787;52.018;8.570;2024-03-06T08:50:31;7.40;99.90
23237;DHT22;11787;52.018;8.570;2024-03-06T08:52:56;7.40;99.90
23237;DHT22;11787;52.018;8.570;2024-03-06T08:55:22;7.50;99.90
23237;DHT22;11787;52.018;8.570;2024-03-06T08:57:47;7.50;99.90
23237;DHT22;11787;52.018;8.570;2024-03-06T09:00:13;7.50;99.90
23237;DHT22;11787;52.018;8.570;2024-03-06T09:02:40;7.50;99.90
23237;DHT22;11787;52.018;8.570;2024-03-06T09:05:06;7.40;99.90
23237;DHT22;11787;52.018;8.570;2024-03-06T09:07:32;7.50;99.90
23237;DHT22;11787;52.018;8.570;2024-03-06T09:10:03;7.40;99.90
23237;DHT22;11787;52.018;8.570;2024-03-06T09:12:31;7.40;99.90
23237;DHT22;11787;52.018;8.570;2024-03-06T09:14:56;7.40;99.90
23237;DHT22;11787;52.018;8.570;2024-03-06T09:17:22;7.40;99.90
23237;DHT22;11787;52.018;8.570;2024-03-06T09:19:47;7.40;99.90
23237;DHT22;11787;52.018;8.570;2024-03-06T09:22:13;7.50;99.90
23237;DHT22;11787;52.018;8.570;2024-03-06T09:24:38;7.50;99.90
23237;DHT22;11787;52.018;8.570;2024-03-06T09:27:04;7.50;99.90
23237;DHT22;11787;52.018;8.570;2024-03-06T09:29:30;7.50;99.90
23237;DHT22;11787;52.018;8.570;2024-03-06T09:31:55;7.50;99.90
23237;DHT22;11787;52.018;8.570;2024-03-06T09:34:21;7.50;99.90
23237;DHT22;11787;52.018;8.570;2024-03-06T09:36:48;7.50;99.90
23237;DHT22;11787;52.018;8.570;2024-03-06T09:39:16;7.60;99.90
23237;DHT22;11787;52.018;8.570;2024-03-06T09:41:45;7.60;99.90
23237;DHT22;11787;52.018;8.570;2024-03-06T09:44:15;7.60;99.90
23237;DHT22;11787;52.018;8.570;2024-03-06T09:46:43;7.60;99.90
23237;DHT22;11787;52.018;8.570;2024-03-06T09:49:14;7.60;99.90
23237;DHT22;11787;52.018;8.570;2024-03-06T09:51:46;7.60;99.90
23237;DHT22;11787;52.018;8.570;2024-03-06T09:54:15;7.60;99.90
23237;DHT22;11787;52.018;8.570;2024-03-06T09:56:42;7.70;99.90
23237;DHT22;11787;52.018;8.570;2024-03-06T09:59:09;7.70;99.90
23237;DHT22;11787;52.018;8.570;2024-03-06T10:01:40;7.70;99.90
23237;DHT22;11787;52.018;8.570;2024-03-06T10:06:44;7.70;99.90
23237;DHT22;11787;52.018;8.570;2024-03-06T10:09:11;7.70;99.90
23237;DHT22;11787;52.018;8.570;2024-03-06T10:11:40;7.70;99.90
23237;DHT22;11787;52.018;8.570;2024-03-06T10:14:06;7.70;99.90
23237;DHT22;11787;52.018;8.570;2024-03-06T10:16:31;7.70;99.90
23237;DHT22;11787;52.018;8.570;2024-03-06T10:18:57;7.70;99.90
23237;DHT22;11787;52.018;8.570;2024-03-06T10:21:31;7.70;99.90
23237;DHT22;11787;52.018;8.570;2024-03-06T10:23:57;7.70;99.90
23237;DHT22;11787;52.018;8.570;2024-03-06T10:26:25;7.70;99.90
23237;DHT22;11787;52.018;8.570;2024-03-06T10:28:50;7.70;99.90
23237;DHT22;11787;52.018;8.570;2024-03-06T10:31:27;7.70;99.90
23237;DHT22;11787;52.018;8.570;2024-03-06T10:33:53;7.70;99.90
23237;DHT22;11787;52.018;8.570;2024-03-06T10:36:19;7.70;99.90
23237;DHT22;11787;52.018;8.570;2024-03-06T10:38:44;7.70;99.90
23237;DHT22;11787;52.018;8.570;2024-03-06T10:41:14;7.80;99.90
23237;DHT22;11787;52.018;8.570;2024-03-06T10:43:42;7.80;99.90
23237;DHT22;11787;52.018;8.570;2024-03-06T10:46:11;7.90;99.90
23237;DHT22;11787;52.018;8.570;2024-03-06T10:48:38;7.90;99.90
23237;DHT22;11787;52.018;8.570;2024-03-06T10:51:05;7.80;99.90
23237;DHT22;11787;52.018;8.570;2024-03-06T10:53:34;7.80;99.90
23237;DHT22;11787;52.018;8.570;2024-03-06T10:56:02;7.80;99.90
23237;DHT22;11787;52.018;8.570;2024-03-06T10:58:29;7.90;99.90
23237;DHT22;11787;52.018;8.570;2024-03-06T11:00:56;7.80;99.90
23237;DHT22;11787;52.018;8.570;2024-03-06T11:03:23;7.70;99.90
23237;DHT22;11787;52.018;8.570;2024-03-06T11:05:51;7.70;99.90
23237;DHT22;11787;52.018;8.570;2024-03-06T11:08:18;7.70;99.90
23237;DHT22;11787;52.018;8.570;2024-03-06T11:10:44;7.80;99.90
23237;DHT22;11787;52.018;8.570;2024-03-06T11:15:45;7.90;99.90
23237;DHT22;11787;52.018;8.570;2024-03-06T11:23:33;7.90;99.90
23237;DHT22;11787;52.018;8.570;2024-03-06T11:26:05;7.90;99.90
23237;DHT22;11787;52.018;8.570;2024-03-06T11:28:32;8.00;99.90
23237;DHT22;11787;52.018;8.570;2024-03-06T11:31:03;8.00;99.90
23237;DHT22;11787;52.018;8.570;2024-03-06T11:33:39;8.00;99.90
23237;DHT22;11787;52.018;8.570;2024-03-06T11:38:58;8.10;99.90
23237;DHT22;11787;52.018;8.570;2024-03-06T11:44:14;8.10;99.90
23237;DHT22;11787;52.018;8.570;2024-03-06T11:46:46;8.10;99.90
23237;DHT22;11787;52.018;8.570;2024-03-06T11:49:17;8.20;99.90
23237;DHT22;11787;52.018;8.570;2024-03-06T11:51:46;8.20;99.90
23237;DHT22;11787;52.018;8.570;2024-03-06T11:54:12;8.20;99.90
23237;DHT22;11787;52.018;8.570;2024-03-06T11:56:40;8.20;99.90
23237;DHT22;11787;52.018;8.570;2024-03-06T11:59:06;8.30;99.90
23237;DHT22;11787;52.018;8.570;2024-03-06T12:01:35;8.40;99.90
23237;DHT22;11787;52.018;8.570;2024-03-06T12:04:02;8.40;99.90
23237;DHT22;11787;52.018;8.570;2024-03-06T12:06:27;8.50;99.90
23237;DHT22;11787;52.018;8.570;2024-03-06T12:08:53;8.60;99.90
23237;DHT22;11787;52.018;8.570;2024-03-06T12:11:19;8.60;99.90
23237;DHT22;11787;52.018;8.570;2024-03-06T12:13:49;8.60;99.90
23237;DHT22;11787;52.018;8.570;2024-03-06T12:16:16;8.70;99.90
23237;DHT22;11787;52.018;8.570;2024-03-06T12:18:41;8.70;99.90
23237;DHT22;11787;52.018;8.570;2024-03-06T12:21:07;8.70;99.90
23237;DHT22;11787;52.018;8.570;2024-03-06T12:23:32;8.80;99.90
23237;DHT22;11787;52.018;8.570;2024-03-06T12:26:07;8.90;99.90
23237;DHT22;11787;52.018;8.570;2024-03-06T12:28:35;8.90;99.90
23237;DHT22;11787;52.018;8.570;2024-03-06T12:31:02;8.90;99.90
23237;DHT22;11787;52.018;8.570;2024-03-06T12:33:27;9.10;99.90
23237;DHT22;11787;52.018;8.570;2024-03-06T12:36:03;9.20;99.90
23237;DHT22;11787;52.018;8.570;2024-03-06T12:38:29;9.30;99.90
23237;DHT22;11787;52.018;8.570;2024-03-06T12:40:54;9.30;99.90
23237;DHT22;11787;52.018;8.570;2024-03-06T12:43:20;9.30;99.90
23237;DHT22;11787;52.018;8.570;2024-03-06T12:45:45;9.30;99.90
23237;DHT22;11787;52.018;8.570;2024-03-06T12:48:11;9.40;99.90
23237;DHT22;11787;52.018;8.570;2024-03-06T12:50:38;9.30;99.90
23237;DHT22;11787;52.018;8.570;2024-03-06T12:53:03;9.30;99.90
23237;DHT22;11787;52.018;8.570;2024-03-06T12:55:30;9.30;99.90
23237;DHT22;11787;52.018;8.570;2024-03-06T12:57:57;9.30;99.90
23237;DHT22;11787;52.018;8.570;2024-03-06T13:00:22;9.30;99.90
23237;DHT22;11787;52.018;8.570;2024-03-06T13:02:49;9.20;99.90
23237;DHT22;11787;52.018;8.570;2024-03-06T13:05:15;9.10;99.90
23237;DHT22;11787;52.018;8.570;2024-03-06T13:07:42;9.00;99.90
23237;DHT22;11787;52.018;8.570;2024-03-06T13:10:07;9.10;99.90
23237;DHT22;11787;52.018;8.570;2024-03-06T13:12:36;9.20;99.90
23237;DHT22;11787;52.018;8.570;2024-03-06T13:15:01;9.20;99.90
23237;DHT22;11787;52.018;8.570;2024-03-06T13:17:27;9.20;99.90
23237;DHT22;11787;52.018;8.570;2024-03-06T13:19:55;9.30;99.90
23237;DHT22;11787;52.018;8.570;2024-03-06T13:22:21;9.40;99.90
23237;DHT22;11787;52.018;8.570;2024-03-06T13:24:47;9.40;99.90
23237;DHT22;11787;52.018;8.570;2024-03-06T13:27:13;9.40;99.90
23237;DHT22;11787;52.018;8.570;2024-03-06T13:29:39;9.50;99.90
23237;DHT22;11787;52.018;8.570;2024-03-06T13:32:06;9.50;99.90
23237;DHT22;11787;52.018;8.570;2024-03-06T13:34:31;9.50;99.90
23237;DHT22;11787;52.018;8.570;2024-03-06T13:36:57;9.50;99.90
23237;DHT22;11787;52.018;8.570;2024-03-06T13:39:22;9.50;99.90
23237;DHT22;11787;52.018;8.570;2024-03-06T13:41:47;9.50;99.90
23237;DHT22;11787;52.018;8.570;2024-03-06T13:44:13;9.50;99.90
23237;DHT22;11787;52.018;8.570;2024-03-06T13:46:38;9.50;99.90
23237;DHT22;11787;52.018;8.570;2024-03-06T13:49:04;9.50;99.90
23237;DHT22;11787;52.018;8.570;2024-03-06T13:51:29;9.60;99.90
23237;DHT22;11787;52.018;8.570;2024-03-06T13:53:55;9.60;99.90
23237;DHT22;11787;52.018;8.570;2024-03-06T13:56:20;9.50;99.90
23237;DHT22;11787;52.018;8.570;2024-03-06T13:58:46;9.40;99.90
23237;DHT22;11787;52.018;8.570;2024-03-06T14:01:11;9.40;99.90
23237;DHT22;11787;52.018;8.570;2024-03-06T14:03:37;9.40;99.90
23237;DHT22;11787;52.018;8.570;2024-03-06T14:06:05;9.30;99.90
23237;DHT22;11787;52.018;8.570;2024-03-06T14:08:32;9.30;99.90
23237;DHT22;11787;52.018;8.570;2024-03-06T14:10:58;9.40;99.90
23237;DHT22;11787;52.018;8.570;2024-03-06T14:13:23;9.40;99.90
23237;DHT22;11787;52.018;8.570;2024-03-06T14:15:49;9.40;99.90
23237;DHT22;11787;52.018;8.570;2024-03-06T14:18:14;9.50;99.90
23237;DHT22;11787;52.018;8.570;2024-03-06T14:20:40;9.40;99.90
23237;DHT22;11787;52.018;8.570;2024-03-06T14:23:05;9.50;99.90
23237;DHT22;11787;52.018;8.570;2024-03-06T14:25:31;9.50;99.90
23237;DHT22;11787;52.018;8.570;2024-03-06T14:28:00;9.50;99.90
23237;DHT22;11787;52.018;8.570;2024-03-06T14:30:26;9.50;99.90
23237;DHT22;11787;52.018;8.570;2024-03-06T14:32:52;9.60;99.90
23237;DHT22;11787;52.018;8.570;2024-03-06T14:35:18;9.60;99.90
23237;DHT22;11787;52.018;8.570;2024-03-06T14:37:43;9.70;99.90
23237;DHT22;11787;52.018;8.570;2024-03-06T14:40:09;9.60;99.90
23237;DHT22;11787;52.018;8.570;2024-03-06T14:42:35;9.60;99.90
23237;DHT22;11787;52.018;8.570;2024-03-06T14:45:00;9.70;99.90
23237;DHT22;11787;52.018;8.570;2024-03-06T14:47:26;9.70;99.90
23237;DHT22;11787;52.018;8.570;2024-03-06T14:49:52;9.70;99.90
23237;DHT22;11787;52.018;8.570;2024-03-06T14:52:19;9.80;99.90
23237;DHT22;11787;52.018;8.570;2024-03-06T14:54:44;9.80;99.90
23237;DHT22;11787;52.018;8.570;2024-03-06T14:57:11;9.70;99.90
23237;DHT22;11787;52.018;8.570;2024-03-06T14:59:37;9.70;99.90
23237;DHT22;11787;52.018;8.570;2024-03-06T15:02:03;9.70;99.90
23237;DHT22;11787;52.018;8.570;2024-03-06T15:04:29;9.70;99.90
23237;DHT22;11787;52.018;8.570;2024-03-06T15:06:55;9.70;99.90
23237;DHT22;11787;52.018;8.570;2024-03-06T15:09:20;9.60;99.90
23237;DHT22;11787;52.018;8.570;2024-03-06T15:11:48;9.60;99.90
23237;DHT22;11787;52.018;8.570;2024-03-06T15:14:14;9.60;99.90
23237;DHT22;11787;52.018;8.570;2024-03-06T15:16:39;9.60;99.90
23237;DHT22;11787;52.018;8.570;2024-03-06T15:19:06;9.60;99.90
23237;DHT22;11787;52.018;8.570;2024-03-06T15:21:31;9.60;99.90
23237;DHT22;11787;52.018;8.570;2024-03-06T15:23:57;9.70;99.90
23237;DHT22;11787;52.018;8.570;2024-03-06T15:26:22;9.70;99.90
23237;DHT22;11787;52.018;8.570;2024-03-06T15:28:48;9.70;99.90
23237;DHT22;11787;52.018;8.570;2024-03-06T15:31:14;9.70;99.90
23237;DHT22;11787;52.018;8.570;2024-03-06T15:33:39;9.60;99.90
23237;DHT22;11787;52.018;8.570;2024-03-06T15:36:04;9.70;99.90
23237;DHT22;11787;52.018;8.570;2024-03-06T15:38:30;9.60;99.90
23237;DHT22;11787;52.018;8.570;2024-03-06T15:40:57;9.50;99.90
23237;DHT22;11787;52.018;8.570;2024-03-06T15:43:22;9.50;99.90
23237;DHT22;11787;52.018;8.570;2024-03-06T15:45:48;9.40;99.90
23237;DHT22;11787;52.018;8.570;2024-03-06T15:48:13;9.40;99.90
23237;DHT22;11787;52.018;8.570;2024-03-06T15:50:42;9.40;99.90
23237;DHT22;11787;52.018;8.570;2024-03-06T15:53:08;9.30;99.90
23237;DHT22;11787;52.018;8.570;2024-03-06T15:55:34;9.30;99.90
23237;DHT22;11787;52.018;8.570;2024-03-06T15:58:01;9.20;99.90
23237;DHT22;11787;52.018;8.570;2024-03-06T16:00:26;9.20;99.90
23237;DHT22;11787;52.018;8.570;2024-03-06T16:02:52;9.20;99.90
23237;DHT22;11787;52.018;8.570;2024-03-06T16:05:17;9.20;99.90
23237;DHT22;11787;52.018;8.570;2024-03-06T16:07:43;9.20;99.90
23237;DHT22;11787;52.018;8.570;2024-03-06T16:10:08;9.20;99.90
23237;DHT22;11787;52.018;8.570;2024-03-06T16:12:34;9.20;99.90